createdAt,value
2018-10-09T00:01:06.206Z,799.60
2018-10-09T00:03:35.368Z,786.90
2018-10-09T00:06:04.477Z,796.87
2018-10-09T00:08:33.528Z,801.17
2018-10-09T00:11:02.556Z,834.83
2018-10-09T00:13:31.645Z,843.57
2018-10-09T00:16:00.694Z,848.97
2018-10-09T00:18:29.773Z,877.83
2018-10-09T00:20:58.826Z,877.13
2018-10-09T00:23:27.882Z,874.73
2018-10-09T00:25:57.868Z,860.13
2018-10-09T00:28:26.923Z,858.53
2018-10-09T00:30:55.950Z,833.40
2018-10-09T00:33:25.023Z,820.37
2018-10-09T00:36:00.583Z,795.53
2018-10-09T00:38:29.658Z,807.10
2018-10-09T00:40:58.708Z,764.20
2018-10-09T00:43:27.803Z,742.67
2018-10-09T00:45:56.839Z,740.83
2018-10-09T00:48:25.972Z,742.57
2018-10-09T00:50:55.070Z,759.83
2018-10-09T00:53:24.196Z,744.30
2018-10-09T00:55:53.333Z,766.03
2018-10-09T00:58:22.440Z,757.57
2018-10-09T01:00:51.567Z,755.63
2018-10-09T01:03:20.810Z,758.97
2018-10-09T01:05:49.947Z,721.00
2018-10-09T01:08:19.091Z,719.57
2018-10-09T01:10:48.341Z,673.23
2018-10-09T01:13:17.405Z,647.67
2018-10-09T01:15:46.494Z,625.17
2018-10-09T01:18:15.581Z,554.80
2018-10-09T01:20:44.690Z,582.47
2018-10-09T01:23:13.723Z,553.10
2018-10-09T01:25:42.849Z,495.20
2018-10-09T01:28:11.931Z,436.87
2018-10-09T01:30:40.974Z,342.27
2018-10-09T01:33:10.065Z,332.87
2018-10-09T01:35:39.151Z,369.43
2018-10-09T01:38:08.226Z,476.27
2018-10-09T01:40:37.256Z,582.80
2018-10-09T01:43:06.376Z,618.97
2018-10-09T01:45:35.397Z,633.73
2018-10-09T01:48:04.538Z,593.27
2018-10-09T01:50:33.652Z,598.57
2018-10-09T01:53:02.764Z,646.97
2018-10-09T01:55:31.900Z,633.83
2018-10-09T01:58:01.097Z,653.27
2018-10-09T02:00:30.197Z,603.83
2018-10-09T02:02:59.267Z,568.97
2018-10-09T02:05:28.361Z,547.93
2018-10-09T02:07:57.434Z,498.67
2018-10-09T02:10:26.621Z,546.80
2018-10-09T02:12:55.737Z,669.13
2018-10-09T02:15:24.791Z,674.20
2018-10-09T02:17:54.247Z,719.27
2018-10-09T02:20:23.339Z,705.87
2018-10-09T02:22:52.394Z,627.70
2018-10-09T02:25:21.549Z,617.23
2018-10-09T02:27:50.659Z,627.10
2018-10-09T02:30:19.714Z,629.97
2018-10-09T02:32:48.856Z,639.20
2018-10-09T02:35:17.921Z,698.43
2018-10-09T02:37:47.311Z,690.47
2018-10-09T02:40:16.388Z,672.13
2018-10-09T02:42:45.539Z,672.53
2018-10-09T02:45:14.586Z,725.07
2018-10-09T02:47:43.657Z,739.10
2018-10-09T02:50:12.741Z,698.77
2018-10-09T02:52:41.830Z,683.50
2018-10-09T02:55:17.741Z,709.17
2018-10-09T02:57:47.021Z,711.53
2018-10-09T03:00:16.144Z,695.37
2018-10-09T03:02:45.268Z,668.40
2018-10-09T03:05:14.338Z,666.97
2018-10-09T03:07:43.462Z,682.83
2018-10-09T03:10:12.558Z,657.40
2018-10-09T03:12:41.668Z,654.43
2018-10-09T03:15:10.783Z,665.67
2018-10-09T03:17:39.824Z,680.70
2018-10-09T03:20:08.948Z,676.47
2018-10-09T03:22:38.116Z,690.50
2018-10-09T03:25:07.325Z,749.73
2018-10-09T03:27:36.440Z,751.17
2018-10-09T03:30:07.281Z,764.47
2018-10-09T03:32:36.591Z,769.70
2018-10-09T03:35:05.720Z,817.13
2018-10-09T03:37:35.401Z,842.63
2018-10-09T03:40:04.637Z,843.10
2018-10-09T03:42:34.091Z,845.97
2018-10-09T03:45:03.256Z,871.30
2018-10-09T03:47:32.419Z,878.27
2018-10-09T03:50:01.482Z,847.50
2018-10-09T03:52:30.612Z,875.23
2018-10-09T03:54:59.750Z,872.23
2018-10-09T03:57:28.884Z,880.20
2018-10-09T03:59:57.937Z,866.33
2018-10-09T04:02:27.005Z,860.90
2018-10-09T04:04:56.168Z,888.60
2018-10-09T04:07:25.236Z,899.67
2018-10-09T04:09:54.307Z,891.60
2018-10-09T04:12:23.762Z,901.43
2018-10-09T04:14:52.877Z,926.07
2018-10-09T04:17:21.923Z,922.07
2018-10-09T04:19:51.028Z,938.07
2018-10-09T04:22:21.787Z,971.70
2018-10-09T04:24:50.963Z,928.87
2018-10-09T04:27:20.473Z,954.73
2018-10-09T04:29:49.556Z,971.20
2018-10-09T04:32:18.584Z,958.87
2018-10-09T04:34:47.710Z,956.13
2018-10-09T04:37:16.853Z,938.87
2018-10-09T04:39:45.987Z,899.43
2018-10-09T04:42:15.094Z,908.03
2018-10-09T04:44:44.198Z,911.33
2018-10-09T04:47:13.434Z,897.23
2018-10-09T04:49:42.503Z,893.73
2018-10-09T04:52:11.558Z,892.30
2018-10-09T04:54:40.627Z,870.23
2018-10-09T04:57:09.698Z,883.53
2018-10-09T04:59:38.814Z,898.63
2018-10-09T05:02:07.891Z,882.90
2018-10-09T05:04:36.923Z,889.00
2018-10-09T05:07:05.977Z,894.73
2018-10-09T05:09:35.127Z,899.53
2018-10-09T05:12:04.759Z,903.97
2018-10-09T05:14:33.897Z,912.40
2018-10-09T05:17:03.062Z,912.83
2018-10-09T05:19:32.120Z,920.27
2018-10-09T05:22:01.306Z,918.47
2018-10-09T05:24:30.394Z,902.20
2018-10-09T05:26:59.562Z,890.47
2018-10-09T05:29:28.785Z,892.73
2018-10-09T05:31:57.976Z,896.83
2018-10-09T05:34:27.351Z,942.17
2018-10-09T05:36:56.496Z,916.80
2018-10-09T05:39:25.587Z,944.63
2018-10-09T05:41:54.764Z,956.93
2018-10-09T05:44:24.031Z,921.87
2018-10-09T05:46:53.214Z,940.00
2018-10-09T05:49:22.378Z,931.83
2018-10-09T05:51:51.502Z,930.80
2018-10-09T05:54:20.603Z,909.23
2018-10-09T05:56:49.731Z,921.90
2018-10-09T05:59:18.770Z,924.37
2018-10-09T06:01:47.857Z,922.43
2018-10-09T06:04:16.889Z,929.30
2018-10-09T06:06:45.967Z,949.00
2018-10-09T06:09:15.835Z,961.97
2018-10-09T06:11:44.937Z,964.30
2018-10-09T06:14:14.046Z,974.30
2018-10-09T06:16:43.128Z,947.23
2018-10-09T06:19:12.299Z,958.33
2018-10-09T06:21:41.335Z,967.80
2018-10-09T06:24:10.411Z,947.97
2018-10-09T06:26:39.608Z,959.17
2018-10-09T06:29:08.703Z,967.00
2018-10-09T06:31:37.838Z,968.90
2018-10-09T06:34:07.149Z,964.80
2018-10-09T06:36:36.181Z,995.47
2018-10-09T06:39:07.213Z,991.80
2018-10-09T06:41:36.465Z,977.60
2018-10-09T06:44:05.626Z,988.03
2018-10-09T06:46:34.778Z,999.90
2018-10-09T06:49:03.853Z,999.87
2018-10-09T06:51:33.042Z,992.67
2018-10-09T06:54:02.240Z,999.50
2018-10-09T06:56:31.317Z,996.00
2018-10-09T06:59:00.403Z,999.90
2018-10-09T07:01:30.795Z,999.90
2018-10-09T07:03:59.893Z,999.90
2018-10-09T07:06:29.073Z,999.90
2018-10-09T07:08:58.167Z,999.90
2018-10-09T07:11:27.387Z,999.90
2018-10-09T07:13:56.506Z,999.90
2018-10-09T07:16:25.657Z,999.90
2018-10-09T07:18:54.824Z,999.90
2018-10-09T07:21:23.923Z,999.90
2018-10-09T07:23:53.004Z,999.90
2018-10-09T07:26:22.094Z,999.90
2018-10-09T07:28:51.238Z,999.90
2018-10-09T07:31:20.291Z,999.90
2018-10-09T07:33:49.885Z,999.90
2018-10-09T07:36:18.941Z,999.90
2018-10-09T07:38:48.059Z,999.90
2018-10-09T07:41:17.092Z,999.90
2018-10-09T07:43:46.363Z,999.90
2018-10-09T07:46:15.431Z,999.90
2018-10-09T07:48:46.081Z,999.90
2018-10-09T07:51:15.153Z,999.90
2018-10-09T07:53:44.314Z,999.90
2018-10-09T07:56:13.415Z,999.90
2018-10-09T07:58:42.666Z,999.90
2018-10-09T08:01:11.738Z,999.90
2018-10-09T08:03:40.772Z,999.90
2018-10-09T08:06:09.795Z,999.90
2018-10-09T08:08:38.774Z,999.90
2018-10-09T08:11:07.812Z,999.90
2018-10-09T08:13:36.806Z,999.90
2018-10-09T08:16:05.861Z,999.90
2018-10-09T08:18:34.867Z,999.90
2018-10-09T08:21:03.905Z,998.30
2018-10-09T08:23:33.336Z,966.33
2018-10-09T08:26:02.470Z,919.33
2018-10-09T08:28:32.112Z,804.80
2018-10-09T08:31:01.206Z,775.23
2018-10-09T08:33:30.216Z,743.67
2018-10-09T08:35:59.261Z,769.50
2018-10-09T08:38:28.353Z,783.13
2018-10-09T08:40:57.388Z,759.40
2018-10-09T08:43:26.395Z,789.23
2018-10-09T08:45:55.455Z,781.33
2018-10-09T08:48:24.492Z,763.30
2018-10-09T08:50:53.491Z,772.93
2018-10-09T08:53:22.529Z,746.00
2018-10-09T08:55:51.565Z,735.70
2018-10-09T08:58:20.585Z,736.97
2018-10-09T09:00:49.732Z,741.20
2018-10-09T09:03:18.745Z,726.00
2018-10-09T09:05:47.885Z,722.00
2018-10-09T09:08:16.954Z,718.03
2018-10-09T09:10:45.944Z,721.47
2018-10-09T09:13:14.992Z,728.67
2018-10-09T09:15:44.021Z,715.13
2018-10-09T09:18:13.094Z,729.30
2018-10-09T09:20:42.202Z,719.47
2018-10-09T09:23:11.151Z,680.83
2018-10-09T09:25:40.317Z,706.93
2018-10-09T09:28:10.146Z,719.73
2018-10-09T09:30:39.220Z,664.03
2018-10-09T09:33:08.262Z,650.67
2018-10-09T09:35:37.353Z,649.83
2018-10-09T09:38:06.668Z,625.03
2018-10-09T09:40:35.763Z,626.23
2018-10-09T09:43:04.828Z,593.50
2018-10-09T09:45:33.947Z,581.87
2018-10-09T09:48:02.965Z,536.00
2018-10-09T09:50:32.010Z,467.83
2018-10-09T09:53:01.050Z,453.33
2018-10-09T09:55:30.073Z,459.00
2018-10-09T09:57:59.252Z,443.53
2018-10-09T10:00:33.514Z,431.40
2018-10-09T10:03:02.568Z,447.10
2018-10-09T10:05:31.932Z,375.47
2018-10-09T10:08:01.401Z,397.90
2018-10-09T10:10:30.502Z,388.97
2018-10-09T10:12:59.500Z,403.57
2018-10-09T10:15:28.625Z,434.43
2018-10-09T10:17:57.651Z,446.90
2018-10-09T10:20:26.805Z,474.43
2018-10-09T10:22:56.094Z,503.33
2018-10-09T10:25:25.402Z,498.60
2018-10-09T10:27:54.461Z,550.40
2018-10-09T10:30:23.456Z,603.10
2018-10-09T10:32:52.480Z,619.97
2018-10-09T10:35:21.483Z,618.60
2018-10-09T10:37:55.531Z,654.33
2018-10-09T10:40:24.775Z,671.77
2018-10-09T10:42:53.865Z,696.93
2018-10-09T10:45:22.906Z,735.67
2018-10-09T10:47:52.011Z,726.13
2018-10-09T10:50:21.079Z,760.63
2018-10-09T10:52:50.231Z,799.10
2018-10-09T10:55:19.458Z,813.07
2018-10-09T10:57:48.551Z,840.47
2018-10-09T11:00:17.677Z,825.90
2018-10-09T11:02:46.736Z,830.47
2018-10-09T11:05:15.919Z,845.93
2018-10-09T11:07:45.004Z,840.97
2018-10-09T11:10:14.044Z,850.30
2018-10-09T11:12:43.157Z,861.70
2018-10-09T11:15:12.222Z,867.50
2018-10-09T11:17:41.207Z,877.77
2018-10-09T11:20:10.243Z,866.50
2018-10-09T11:22:39.304Z,874.93
2018-10-09T11:25:08.401Z,863.20
2018-10-09T11:27:37.653Z,854.97
2018-10-09T11:30:06.982Z,858.83
2018-10-09T11:32:36.094Z,856.77
2018-10-09T11:35:05.203Z,862.70
2018-10-09T11:37:34.277Z,863.13
2018-10-09T11:40:03.331Z,852.70
2018-10-09T11:42:32.469Z,841.80
2018-10-09T11:45:01.580Z,851.63
2018-10-09T11:47:30.612Z,848.93
2018-10-09T11:49:59.644Z,832.00
2018-10-09T11:52:28.715Z,842.30
2018-10-09T11:54:57.785Z,845.70
2018-10-09T11:57:26.792Z,836.23
2018-10-09T11:59:55.875Z,858.97
2018-10-09T12:02:24.963Z,852.47
2018-10-09T12:04:53.977Z,847.67
2018-10-09T12:07:23.056Z,848.70
2018-10-09T12:09:52.085Z,872.37
2018-10-09T12:12:21.183Z,892.40
2018-10-09T12:14:50.256Z,882.90
2018-10-09T12:17:19.300Z,894.20
2018-10-09T12:19:48.356Z,891.40
2018-10-09T12:22:17.383Z,895.60
2018-10-09T12:24:46.425Z,896.83
2018-10-09T12:27:15.494Z,898.13
2018-10-09T12:29:44.487Z,913.43
2018-10-09T12:32:13.545Z,918.40
2018-10-09T12:34:42.647Z,906.90
2018-10-09T12:37:11.736Z,904.30
2018-10-09T12:39:40.881Z,908.53
2018-10-09T12:42:09.929Z,904.57
2018-10-09T12:44:39.003Z,863.77
2018-10-09T12:47:08.077Z,845.73
2018-10-09T12:49:37.071Z,850.63
2018-10-09T12:52:07.048Z,841.60
2018-10-09T12:54:36.108Z,805.90
2018-10-09T12:57:05.260Z,797.70
2018-10-09T12:59:34.353Z,814.60
2018-10-09T13:02:03.406Z,794.30
2018-10-09T13:04:32.523Z,812.30
2018-10-09T13:07:01.567Z,802.80
2018-10-09T13:09:30.713Z,826.23
2018-10-09T13:11:59.743Z,796.37
2018-10-09T13:14:28.808Z,811.87
2018-10-09T13:16:57.825Z,810.03
2018-10-09T13:19:26.897Z,791.47
2018-10-09T13:21:56.290Z,775.57
2018-10-09T13:24:25.011Z,776.13
2018-10-09T13:26:54.033Z,772.70
2018-10-09T13:29:23.044Z,779.57
2018-10-09T13:31:52.126Z,792.10
2018-10-09T13:34:21.246Z,792.00
2018-10-09T13:36:50.664Z,771.63
2018-10-09T13:39:19.759Z,782.63
2018-10-09T13:41:48.753Z,769.07
2018-10-09T13:44:17.740Z,765.97
2018-10-09T13:46:46.788Z,766.70
2018-10-09T13:49:15.817Z,774.23
2018-10-09T13:51:44.895Z,768.47
2018-10-09T13:54:13.965Z,773.17
2018-10-09T13:56:43.012Z,746.57
2018-10-09T13:59:12.000Z,750.20
2018-10-09T14:01:41.015Z,742.00
2018-10-09T14:04:10.058Z,743.83
2018-10-09T14:06:39.119Z,759.93
2018-10-09T14:09:10.018Z,765.43
2018-10-09T14:11:39.439Z,763.10
2018-10-09T14:14:08.581Z,758.30
2018-10-09T14:16:37.572Z,750.27
2018-10-09T14:19:07.001Z,744.73
2018-10-09T14:21:35.995Z,754.17
2018-10-09T14:24:05.126Z,762.23
2018-10-09T14:26:34.189Z,775.70
2018-10-09T14:29:03.239Z,752.50
2018-10-09T14:31:32.321Z,767.13
2018-10-09T14:34:01.337Z,775.87
2018-10-09T14:36:30.371Z,771.90
2018-10-09T14:38:59.364Z,772.00
2018-10-09T14:41:28.426Z,764.87
2018-10-09T14:43:57.459Z,767.93
2018-10-09T14:46:26.506Z,761.93
2018-10-09T14:48:55.507Z,758.13
2018-10-09T14:51:24.553Z,767.63
2018-10-09T14:53:53.560Z,760.90
2018-10-09T14:56:22.638Z,780.23
2018-10-09T14:58:51.651Z,763.57
2018-10-09T15:01:20.728Z,763.93
2018-10-09T15:03:49.762Z,755.33
2018-10-09T15:06:25.108Z,749.97
2018-10-09T15:08:54.190Z,776.70
2018-10-09T15:11:23.302Z,756.27
2018-10-09T15:13:52.509Z,740.90
2018-10-09T15:16:21.591Z,779.30
2018-10-09T15:18:50.618Z,730.23
2018-10-09T15:21:19.702Z,738.50
2018-10-09T15:23:48.715Z,722.80
2018-10-09T15:26:17.722Z,719.93
2018-10-09T15:28:46.752Z,725.67
2018-10-09T15:31:15.826Z,754.03
2018-10-09T15:33:45.789Z,697.03
2018-10-09T15:36:14.796Z,694.37
2018-10-09T15:38:43.816Z,700.97
2018-10-09T15:41:12.956Z,707.23
2018-10-09T15:43:41.961Z,725.13
2018-10-09T15:46:11.027Z,697.03
2018-10-09T15:48:40.057Z,721.37
2018-10-09T15:51:09.076Z,710.27
2018-10-09T15:53:38.157Z,718.97
2018-10-09T15:56:07.356Z,713.30
2018-10-09T15:58:36.379Z,709.70
2018-10-09T16:01:05.440Z,694.60
2018-10-09T16:03:34.436Z,681.93
2018-10-09T16:06:03.531Z,681.83
2018-10-09T16:08:32.599Z,687.33
2018-10-09T16:11:01.669Z,673.90
2018-10-09T16:13:30.701Z,655.23
2018-10-09T16:16:00.803Z,666.73
2018-10-09T16:18:29.847Z,658.73
2018-10-09T16:20:58.884Z,657.93
2018-10-09T16:23:28.016Z,664.03
2018-10-09T16:25:57.059Z,647.50
2018-10-09T16:28:26.125Z,651.00
2018-10-09T16:30:55.797Z,641.53
2018-10-09T16:33:24.868Z,639.73
2018-10-09T16:35:53.884Z,638.83
2018-10-09T16:38:23.314Z,616.13
2018-10-09T16:40:52.374Z,610.47
2018-10-09T16:43:21.454Z,622.57
2018-10-09T16:45:50.516Z,627.67
2018-10-09T16:48:19.645Z,597.30
2018-10-09T16:50:48.711Z,660.83
2018-10-09T16:53:17.821Z,619.93
2018-10-09T16:55:46.930Z,647.63
2018-10-09T16:58:15.995Z,632.27
2018-10-09T17:00:45.383Z,653.87
2018-10-09T17:03:14.499Z,660.00
2018-10-09T17:05:43.647Z,653.93
2018-10-09T17:08:12.700Z,658.60
2018-10-09T17:10:41.793Z,686.87
2018-10-09T17:13:11.015Z,696.87
2018-10-09T17:18:02.279Z,717.47
2018-10-09T17:20:31.460Z,727.33
2018-10-09T17:23:00.448Z,755.30
2018-10-09T17:25:29.491Z,802.53
2018-10-09T17:27:59.087Z,823.20
2018-10-09T17:30:28.247Z,830.73
2018-10-09T17:32:57.294Z,829.80
2018-10-09T17:35:26.387Z,848.40
2018-10-09T17:37:55.360Z,858.90
2018-10-09T17:40:24.425Z,843.47
2018-10-09T17:42:53.482Z,838.57
2018-10-09T17:45:22.476Z,861.33
2018-10-09T17:47:51.525Z,866.87
2018-10-09T17:50:20.681Z,833.40
2018-10-09T17:52:50.092Z,864.50
2018-10-09T17:55:19.080Z,847.97
2018-10-09T17:57:48.366Z,858.33
2018-10-09T18:00:19.462Z,879.57
2018-10-09T18:02:50.082Z,888.20
2018-10-09T18:05:23.505Z,894.00
2018-10-09T18:07:52.929Z,899.03
2018-10-09T18:10:22.041Z,885.97
2018-10-09T18:12:52.508Z,905.40
2018-10-09T18:15:21.869Z,907.10
2018-10-09T18:17:51.503Z,870.30
2018-10-09T18:20:20.635Z,876.97
2018-10-09T18:22:49.663Z,884.53
2018-10-09T18:25:18.729Z,884.77
2018-10-09T18:27:47.766Z,883.03
2018-10-09T18:30:16.844Z,882.80
2018-10-09T18:32:46.147Z,889.93
2018-10-09T18:35:15.016Z,867.30
2018-10-09T18:37:44.142Z,866.47
2018-10-09T18:40:13.168Z,862.67
2018-10-09T18:42:42.186Z,858.10
2018-10-09T18:45:11.281Z,865.80
2018-10-09T18:47:40.915Z,862.43
2018-10-09T18:50:10.377Z,849.13
2018-10-09T18:52:40.120Z,833.67
2018-10-09T18:55:11.129Z,831.67
2018-10-09T18:57:40.198Z,829.13
2018-10-09T19:00:09.901Z,833.33
2018-10-09T19:02:39.520Z,836.23
2018-10-09T19:05:09.185Z,835.50
2018-10-09T19:07:38.475Z,824.33
2018-10-09T19:10:07.831Z,840.40
2018-10-09T19:12:36.829Z,810.03
2018-10-09T19:15:06.213Z,825.73
2018-10-09T19:17:35.208Z,810.43
2018-10-09T19:20:04.302Z,817.73
2018-10-09T19:22:33.421Z,807.80
2018-10-09T19:25:02.472Z,801.73
2018-10-09T19:27:38.140Z,796.27
2018-10-09T19:30:07.946Z,788.60
2018-10-09T19:32:37.067Z,791.00
2018-10-09T19:35:06.285Z,785.03
2018-10-09T19:37:35.326Z,772.07
2018-10-09T19:40:04.728Z,774.90
2018-10-09T19:42:33.764Z,781.40
2018-10-09T19:45:02.823Z,767.30
2018-10-09T19:47:36.324Z,771.20
2018-10-09T19:50:07.292Z,769.67
2018-10-09T19:52:36.867Z,764.47
2018-10-09T19:55:06.311Z,754.43
2018-10-09T19:57:35.345Z,762.10
2018-10-09T20:00:04.964Z,752.10
2018-10-09T20:02:33.962Z,761.40
2018-10-09T20:05:03.065Z,776.23
2018-10-09T20:07:32.186Z,788.10
2018-10-09T20:10:01.213Z,776.13
2018-10-09T20:12:30.238Z,778.63
2018-10-09T20:14:59.310Z,772.47
2018-10-09T20:17:28.356Z,772.50
2018-10-09T20:19:57.366Z,775.03
2018-10-09T20:22:26.409Z,784.70
2018-10-09T20:24:55.410Z,782.73
2018-10-09T20:27:24.540Z,797.53
2018-10-09T20:29:53.555Z,789.30
2018-10-09T20:32:22.571Z,800.50
2018-10-09T20:34:51.612Z,791.80
2018-10-09T20:37:20.865Z,786.37
2018-10-09T20:39:49.933Z,789.60
2018-10-09T20:42:18.921Z,797.77
2018-10-09T20:44:47.968Z,764.23
2018-10-09T20:47:21.262Z,764.43
2018-10-09T20:49:50.342Z,744.10
2018-10-09T20:52:19.441Z,726.77
2018-10-09T20:54:48.423Z,685.80
2018-10-09T20:57:17.474Z,676.30
2018-10-09T20:59:46.574Z,666.60
2018-10-09T21:02:15.637Z,625.90
2018-10-09T21:04:44.687Z,599.17
2018-10-09T21:07:13.740Z,575.17
2018-10-09T21:09:42.789Z,530.30
2018-10-09T21:12:11.807Z,562.03
2018-10-09T21:14:40.837Z,585.43
2018-10-09T21:17:09.835Z,591.03
2018-10-09T21:19:38.896Z,605.83
2018-10-09T21:22:08.043Z,557.90
2018-10-09T21:24:37.026Z,531.97
2018-10-09T21:27:06.070Z,534.53
2018-10-09T21:29:35.197Z,445.80
2018-10-09T21:32:04.255Z,510.47
2018-10-09T21:34:34.057Z,515.00
2018-10-09T21:37:03.114Z,506.83
2018-10-09T21:39:32.158Z,525.83
2018-10-09T21:42:01.185Z,565.83
2018-10-09T21:44:30.886Z,534.43
2018-10-09T21:47:00.506Z,550.70
2018-10-09T21:49:29.793Z,554.83
2018-10-09T21:51:58.854Z,536.87
2018-10-09T21:54:27.927Z,547.53
2018-10-09T21:56:57.596Z,532.10
2018-10-09T21:59:27.052Z,526.83
2018-10-09T22:01:57.069Z,511.27
2018-10-09T22:04:26.424Z,506.20
2018-10-09T22:06:55.490Z,524.73
2018-10-09T22:09:24.840Z,521.17
2018-10-09T22:11:53.843Z,517.57
2018-10-09T22:14:22.873Z,550.57
2018-10-09T22:16:52.246Z,536.33
2018-10-09T22:19:28.109Z,510.87
2018-10-09T22:21:57.223Z,541.83
2018-10-09T22:24:26.362Z,524.33
2018-10-09T22:26:55.452Z,535.17
2018-10-09T22:29:24.956Z,523.57
2018-10-09T22:31:54.338Z,549.10
2018-10-09T22:34:23.359Z,587.37
2018-10-09T22:36:52.530Z,584.33
2018-10-09T22:39:21.624Z,593.27
2018-10-09T22:41:50.732Z,589.07
2018-10-09T22:44:19.812Z,589.37
2018-10-09T22:46:49.008Z,608.13
2018-10-09T22:49:18.221Z,596.37
2018-10-09T22:51:47.998Z,561.70
2018-10-09T22:54:17.166Z,535.10
2018-10-09T22:56:46.205Z,541.83
2018-10-09T22:59:15.194Z,506.20
2018-10-09T23:01:44.240Z,501.30
2018-10-09T23:04:13.321Z,487.23
2018-10-09T23:06:42.408Z,554.53
2018-10-09T23:09:12.230Z,553.20
2018-10-09T23:11:41.293Z,499.00
2018-10-09T23:14:10.293Z,514.73
2018-10-09T23:16:39.542Z,458.90
2018-10-09T23:19:08.564Z,493.47
2018-10-09T23:21:37.623Z,494.83
2018-10-09T23:24:06.672Z,522.60
2018-10-09T23:26:35.757Z,497.97
2018-10-09T23:29:04.920Z,490.73
2018-10-09T23:31:34.076Z,504.83
2018-10-09T23:34:03.166Z,499.77
2018-10-09T23:36:32.264Z,518.80
2018-10-09T23:39:01.352Z,492.60
2018-10-09T23:41:31.225Z,487.33
2018-10-09T23:44:00.235Z,546.13
2018-10-09T23:46:29.358Z,514.40
2018-10-09T23:48:58.376Z,505.00
2018-10-09T23:51:27.432Z,502.70
2018-10-09T23:53:57.744Z,478.67
2018-10-09T23:56:27.006Z,494.93
2018-10-09T23:59:02.433Z,510.53
